Britsum, Netherlands
Current Conditions -  °F | °C
As of 3:55 AM on Wednesday 22 Oct 2014 (Local Time) from EHLW Reporting Station
Broken Clouds Broken Clouds  
Wind Chill: 50°   Ceiling: 6100
Heat Index: 50°   Visibility: 6mi
Dew Point: 41°   Wind: 24mph
Humidity: 71%   Direction: 310°NW
Pressure: 29.74"   Gusts: 38mph
Location:  53.25°N, 5.79°E
Report Text: EHLW 220155Z AUTO 31021G33KT 9999 FEW043 SCT052 BKN061 10/05 Q1007 BLU
Loading
Personal Weather Stations






























Interactive Weather Map
Tropical Storm Tracking
New forecast layout! Learn more

10-Day Weather Forecast

Advertisements
Track Severe Weather on mobile